createdAt,value
2018-02-24T00:01:41.467Z,34.90
2018-02-24T00:04:08.820Z,37.30
2018-02-24T00:06:36.412Z,35.00
2018-02-24T00:09:03.797Z,37.50
2018-02-24T00:13:59.437Z,36.00
2018-02-24T00:18:56.044Z,38.70
2018-02-24T00:21:23.400Z,40.60
2018-02-24T00:23:50.760Z,38.30
2018-02-24T00:26:18.871Z,36.50
2018-02-24T00:28:46.296Z,39.00
2018-02-24T00:31:13.976Z,37.10
2018-02-24T00:36:09.584Z,37.90
2018-02-24T00:38:37.866Z,35.90
2018-02-24T00:41:05.265Z,37.60
2018-02-24T00:43:33.399Z,37.20
2018-02-24T00:46:00.740Z,35.10
2018-02-24T00:48:28.143Z,36.00
2018-02-24T00:50:56.217Z,37.50
2018-02-24T00:53:24.362Z,36.50
2018-02-24T00:55:51.694Z,38.60
2018-02-24T00:58:19.801Z,37.90
2018-02-24T01:00:47.176Z,37.90
2018-02-24T01:05:42.785Z,37.80
2018-02-24T01:08:10.866Z,38.30
2018-02-24T01:10:38.987Z,37.80
2018-02-24T01:13:06.336Z,37.40
2018-02-24T01:15:34.457Z,39.00
2018-02-24T01:18:01.782Z,36.90
2018-02-24T01:22:57.463Z,38.10
2018-02-24T01:25:25.095Z,38.30
2018-02-24T01:30:21.819Z,40.20
2018-02-24T01:32:49.260Z,37.80
2018-02-24T01:35:17.364Z,42.30
2018-02-24T01:37:44.919Z,40.20
2018-02-24T01:40:13.037Z,38.20
2018-02-24T01:50:05.185Z,38.90
2018-02-24T01:52:32.517Z,39.90
2018-02-24T01:55:00.661Z,39.90
2018-02-24T01:57:28.826Z,40.60
2018-02-24T01:59:56.189Z,37.50
2018-02-24T02:02:23.589Z,40.10
2018-02-24T02:07:19.994Z,35.60
2018-02-24T02:09:47.343Z,36.80
2018-02-24T02:12:15.460Z,37.30
2018-02-24T02:14:42.819Z,40.70
2018-02-24T02:19:39.248Z,38.50
2018-02-24T02:22:07.321Z,37.20
2018-02-24T02:24:34.720Z,38.10
2018-02-24T02:27:02.839Z,35.80
2018-02-24T02:31:58.457Z,37.00
2018-02-24T02:34:25.861Z,34.80
2018-02-24T02:36:53.503Z,37.60
2018-02-24T02:39:20.872Z,36.50
2018-02-24T02:41:48.285Z,38.50
2018-02-24T02:44:15.634Z,37.20
2018-02-24T02:49:12.066Z,40.30
2018-02-24T02:51:40.207Z,39.20
2018-02-24T02:56:36.549Z,40.30
2018-02-24T02:59:05.004Z,40.90
2018-02-24T03:04:00.714Z,39.50
2018-02-24T03:06:28.055Z,37.40
2018-02-24T03:08:56.272Z,39.30
2018-02-24T03:11:23.629Z,38.90
2018-02-24T03:13:51.023Z,38.10
2018-02-24T03:16:19.124Z,37.50
2018-02-24T03:21:14.948Z,39.90
2018-02-24T03:23:42.289Z,40.60
2018-02-24T03:26:10.427Z,38.00
2018-02-24T03:28:37.881Z,35.80
2018-02-24T03:31:05.201Z,38.10
2018-02-24T03:33:33.321Z,38.60
2018-02-24T03:38:28.916Z,38.30
2018-02-24T03:40:56.343Z,39.30
2018-02-24T03:43:24.507Z,36.50
2018-02-24T03:45:53.463Z,38.70
2018-02-24T03:48:21.880Z,39.70
2018-02-24T03:50:49.384Z,39.40
2018-02-24T03:55:45.900Z,38.20
2018-02-24T03:58:14.147Z,38.20
2018-02-24T04:03:10.637Z,37.40
2018-02-24T04:05:38.160Z,38.70
2018-02-24T04:08:05.509Z,42.80
2018-02-24T04:10:33.735Z,40.60
2018-02-24T04:13:01.076Z,37.50
2018-02-24T04:17:56.888Z,35.30
2018-02-24T04:20:24.228Z,38.10
2018-02-24T04:25:20.299Z,39.20
2018-02-24T04:27:48.428Z,39.90
2018-02-24T04:30:16.683Z,39.10
2018-02-24T04:32:44.080Z,40.20
2018-02-24T04:35:11.422Z,39.90
2018-02-24T04:37:39.540Z,38.60
2018-02-24T04:40:06.885Z,40.30
2018-02-24T04:42:34.422Z,39.90
2018-02-24T04:45:01.941Z,41.70
2018-02-24T04:47:29.307Z,37.20
2018-02-24T04:49:57.459Z,35.80
2018-02-24T04:52:25.539Z,37.30
2018-02-24T04:54:52.933Z,40.00
2018-02-24T04:57:20.511Z,39.20
2018-02-24T04:59:47.879Z,40.10
2018-02-24T05:02:15.220Z,40.10
2018-02-24T05:04:42.591Z,40.30
2018-02-24T05:07:10.663Z,39.90
2018-02-24T05:09:38.228Z,37.80
2018-02-24T05:12:06.292Z,41.50
2018-02-24T05:14:33.816Z,37.70
2018-02-24T05:17:01.190Z,37.20
2018-02-24T05:19:29.092Z,39.60
2018-02-24T05:24:25.596Z,40.20
2018-02-24T05:26:53.672Z,40.00
2018-02-24T05:29:21.048Z,38.20
2018-02-24T05:31:49.144Z,46.30
2018-02-24T05:36:44.855Z,39.50
2018-02-24T05:39:12.216Z,42.30
2018-02-24T05:44:07.928Z,41.40
2018-02-24T05:46:35.315Z,38.20
2018-02-24T05:49:03.449Z,38.40
2018-02-24T05:51:30.803Z,39.90
2018-02-24T05:53:58.879Z,38.20
2018-02-24T05:56:27.005Z,42.90
2018-02-24T05:58:54.385Z,40.20
2018-02-24T06:01:21.789Z,41.30
2018-02-24T06:03:49.139Z,40.90
2018-02-24T06:06:16.735Z,41.10
2018-02-24T06:08:44.988Z,39.60
2018-02-24T06:11:13.136Z,43.20
2018-02-24T06:13:40.456Z,41.30
2018-02-24T06:16:07.806Z,41.00
2018-02-24T06:18:36.020Z,42.30
2018-02-24T06:21:03.352Z,40.30
2018-02-24T06:23:30.740Z,38.60
2018-02-24T06:25:58.200Z,37.30
2018-02-24T06:28:25.544Z,40.40
2018-02-24T06:30:53.820Z,42.30
2018-02-24T06:33:21.153Z,39.30
2018-02-24T06:35:48.591Z,41.40
2018-02-24T06:38:15.936Z,41.10
2018-02-24T06:40:43.339Z,36.50
2018-02-24T06:43:10.673Z,39.50
2018-02-24T06:48:06.303Z,43.20
2018-02-24T06:50:34.416Z,39.80
2018-02-24T06:55:30.364Z,39.80
2018-02-24T07:00:27.908Z,40.50
2018-02-24T07:02:55.269Z,38.80
2018-02-24T07:07:51.564Z,40.60
2018-02-24T07:10:19.851Z,40.70
2018-02-24T07:12:47.418Z,41.70
2018-02-24T07:17:44.499Z,39.90
2018-02-24T07:20:12.652Z,41.00
2018-02-24T07:25:08.328Z,41.80
2018-02-24T07:27:36.439Z,40.00
2018-02-24T07:30:04.533Z,40.10
2018-02-24T07:32:32.692Z,41.30
2018-02-24T07:35:00.050Z,37.40
2018-02-24T07:37:28.192Z,39.20
2018-02-24T07:39:56.383Z,37.80
2018-02-24T07:42:24.492Z,38.90
2018-02-24T07:54:45.743Z,39.70
2018-02-24T07:57:13.103Z,36.30
2018-02-24T07:59:41.212Z,39.10
2018-02-24T08:02:08.899Z,36.00
2018-02-24T08:04:37.055Z,35.00
2018-02-24T08:07:05.826Z,35.40
2018-02-24T08:09:33.253Z,37.90
2018-02-24T08:12:00.632Z,38.30
2018-02-24T08:14:28.008Z,39.80
2018-02-24T08:16:56.644Z,36.20
2018-02-24T08:21:53.775Z,35.30
2018-02-24T08:24:21.877Z,36.30
2018-02-24T08:26:49.250Z,36.20
2018-02-24T08:29:17.384Z,35.50
2018-02-24T08:31:45.524Z,35.10
2018-02-24T08:36:41.211Z,37.70
2018-02-24T08:39:08.600Z,34.30
2018-02-24T08:44:05.010Z,28.60
2018-02-24T08:46:32.461Z,30.60
2018-02-24T08:49:00.545Z,29.90
2018-02-24T08:53:56.269Z,30.90
2018-02-24T08:56:24.392Z,29.50
2018-02-24T09:01:20.524Z,28.00
2018-02-24T09:06:16.943Z,27.40
2018-02-24T09:08:44.528Z,27.30
2018-02-24T09:11:11.903Z,25.70
2018-02-24T09:13:40.008Z,25.10
2018-02-24T09:18:36.413Z,26.20
2018-02-24T09:21:04.647Z,25.80
2018-02-24T09:23:32.052Z,23.90
2018-02-24T09:26:00.244Z,23.70
2018-02-24T09:28:28.304Z,24.70
2018-02-24T09:30:55.736Z,26.20
2018-02-24T09:35:52.155Z,25.40
2018-02-24T09:38:19.538Z,25.60
2018-02-24T09:43:15.156Z,23.60
2018-02-24T09:48:11.805Z,26.30
2018-02-24T09:50:40.020Z,23.90
2018-02-24T09:55:35.929Z,23.70
2018-02-24T09:58:03.326Z,24.90
2018-02-24T10:02:59.016Z,23.90
2018-02-24T10:05:27.212Z,25.40
2018-02-24T10:07:54.589Z,20.50
2018-02-24T10:10:22.688Z,23.40
2018-02-24T10:12:50.061Z,23.20
2018-02-24T10:17:55.982Z,24.70
2018-02-24T10:20:23.352Z,23.40
2018-02-24T10:22:50.745Z,22.20
2018-02-24T10:25:18.120Z,21.60
2018-02-24T10:27:45.506Z,21.00
2018-02-24T10:30:17.544Z,19.70
2018-02-24T10:32:49.970Z,19.40
2018-02-24T10:35:19.675Z,18.60
2018-02-24T10:37:48.632Z,19.20
2018-02-24T10:40:16.115Z,21.70
2018-02-24T10:42:49.336Z,20.70
2018-02-24T10:45:17.692Z,20.40
2018-02-24T10:47:45.121Z,22.40
2018-02-24T10:50:12.501Z,22.40
2018-02-24T10:52:39.938Z,22.80
2018-02-24T10:55:07.318Z,20.90
2018-02-24T10:57:34.712Z,20.00
2018-02-24T11:00:08.439Z,20.80
2018-02-24T11:02:38.843Z,20.80
2018-02-24T11:05:07.157Z,21.60
2018-02-24T11:07:34.772Z,21.20
2018-02-24T11:10:02.446Z,19.70
2018-02-24T11:12:32.589Z,17.30
2018-02-24T11:15:00.285Z,19.60
2018-02-24T11:17:27.690Z,17.90
2018-02-24T11:19:55.804Z,18.80
2018-02-24T11:22:23.212Z,16.90
2018-02-24T11:24:50.768Z,17.20
2018-02-24T11:27:23.679Z,14.40
2018-02-24T11:29:54.964Z,14.30
2018-02-24T11:32:22.449Z,13.70
2018-02-24T11:34:52.721Z,13.30
2018-02-24T11:37:20.245Z,14.40
2018-02-24T11:39:47.899Z,13.80
2018-02-24T11:42:29.027Z,12.90
2018-02-24T11:45:14.611Z,12.80
2018-02-24T11:47:42.011Z,12.30
2018-02-24T11:50:12.570Z,13.30
2018-02-24T11:52:40.080Z,15.00
2018-02-24T11:55:07.425Z,14.60
2018-02-24T11:57:41.661Z,14.70
2018-02-24T12:00:13.646Z,14.00
2018-02-24T12:02:41.068Z,16.70
2018-02-24T12:05:09.266Z,14.50
2018-02-24T12:07:39.581Z,14.40
2018-02-24T12:10:07.725Z,15.10
2018-02-24T12:12:35.101Z,13.90
2018-02-24T12:15:03.547Z,12.80
2018-02-24T12:17:30.940Z,13.60
2018-02-24T12:19:59.225Z,13.60
2018-02-24T12:22:27.636Z,14.80
2018-02-24T12:24:55.027Z,14.60
2018-02-24T12:27:27.037Z,15.40
2018-02-24T12:29:58.100Z,14.50
2018-02-24T12:32:31.376Z,13.00
2018-02-24T12:34:58.893Z,13.90
2018-02-24T12:37:27.312Z,14.80
2018-02-24T12:39:54.736Z,14.10
2018-02-24T12:42:24.992Z,13.90
2018-02-24T12:44:54.376Z,13.60
2018-02-24T12:47:21.732Z,14.80
2018-02-24T12:49:51.708Z,14.20
2018-02-24T12:52:20.104Z,14.70
2018-02-24T12:54:47.477Z,15.40
2018-02-24T12:57:18.392Z,17.10
2018-02-24T12:59:46.649Z,15.50
2018-02-24T13:02:14.069Z,14.70
2018-02-24T13:04:41.508Z,15.00
2018-02-24T13:07:08.984Z,14.30
2018-02-24T13:09:36.437Z,15.70
2018-02-24T13:12:08.392Z,13.50
2018-02-24T13:14:38.316Z,13.20
2018-02-24T13:17:05.692Z,14.10
2018-02-24T13:19:36.816Z,15.00
2018-02-24T13:24:36.201Z,14.00
2018-02-24T13:27:03.580Z,14.10
2018-02-24T13:32:00.027Z,13.90
2018-02-24T13:34:28.203Z,19.20
2018-02-24T13:36:55.604Z,18.60
2018-02-24T13:39:23.048Z,18.10
2018-02-24T13:41:51.160Z,15.80
2018-02-24T13:46:46.941Z,18.50
2018-02-24T13:51:42.604Z,20.00
2018-02-24T13:54:10.695Z,17.00
2018-02-24T13:56:38.827Z,17.10
2018-02-24T13:59:07.001Z,18.00
2018-02-24T14:01:34.391Z,17.10
2018-02-24T14:06:30.187Z,14.10
2018-02-24T14:08:58.337Z,13.00
2018-02-24T14:11:25.729Z,14.10
2018-02-24T14:16:21.537Z,18.30
2018-02-24T14:18:48.992Z,19.60
2018-02-24T14:21:16.332Z,21.20
2018-02-24T14:23:44.856Z,18.70
2018-02-24T14:26:12.948Z,20.10
2018-02-24T14:31:09.661Z,18.30
2018-02-24T14:33:37.116Z,23.10
2018-02-24T14:36:05.204Z,18.40
2018-02-24T14:38:32.536Z,19.70
2018-02-24T14:40:59.928Z,18.40
2018-02-24T14:43:27.280Z,21.00
2018-02-24T14:45:55.416Z,19.30
2018-02-24T14:48:23.495Z,21.90
2018-02-24T14:50:51.687Z,20.50
2018-02-24T14:53:19.041Z,20.60
2018-02-24T14:55:46.440Z,20.20
2018-02-24T14:58:14.568Z,19.90
2018-02-24T15:00:41.941Z,20.40
2018-02-24T15:05:37.631Z,21.90
2018-02-24T15:08:05.064Z,22.20
2018-02-24T15:13:01.462Z,21.00
2018-02-24T15:15:29.581Z,20.50
2018-02-24T15:20:25.485Z,21.10
2018-02-24T15:22:52.803Z,21.00
2018-02-24T15:25:20.961Z,21.20
2018-02-24T15:27:48.288Z,21.90
2018-02-24T15:30:16.440Z,23.00
2018-02-24T15:32:43.788Z,22.90
2018-02-24T15:35:11.191Z,22.20
2018-02-24T15:37:38.575Z,22.20
2018-02-24T15:40:05.936Z,22.70
2018-02-24T15:42:33.321Z,24.10
2018-02-24T15:47:29.989Z,23.30
2018-02-24T15:52:26.510Z,24.00
2018-02-24T15:54:53.888Z,23.80
2018-02-24T15:59:49.616Z,25.60
2018-02-24T16:02:17.739Z,24.50
2018-02-24T16:04:45.088Z,24.10
2018-02-24T16:07:12.479Z,24.30
2018-02-24T16:09:39.968Z,25.60
2018-02-24T16:14:36.427Z,27.20
2018-02-24T16:19:32.073Z,26.40
2018-02-24T16:21:59.446Z,26.10
2018-02-24T16:24:26.881Z,25.20
2018-02-24T16:31:51.529Z,25.60
2018-02-24T16:36:48.281Z,27.80
2018-02-24T16:39:16.366Z,26.00
2018-02-24T16:41:43.797Z,27.70
2018-02-24T16:46:40.414Z,26.40
2018-02-24T16:51:36.881Z,26.40
2018-02-24T16:56:33.780Z,26.80
2018-02-24T16:59:02.157Z,26.80
2018-02-24T17:01:29.541Z,29.40
2018-02-24T17:03:57.784Z,27.60
2018-02-24T17:08:54.572Z,28.40
2018-02-24T17:11:22.791Z,27.60
2018-02-24T17:13:50.993Z,28.60
2018-02-24T17:16:18.452Z,27.80
2018-02-24T17:18:46.164Z,27.50
2018-02-24T17:21:13.535Z,27.80
2018-02-24T17:26:09.409Z,28.50
2018-02-24T17:28:37.499Z,29.20
2018-02-24T17:31:04.898Z,28.70
2018-02-24T17:33:32.261Z,29.70
2018-02-24T17:35:59.940Z,30.00
2018-02-24T17:38:27.316Z,28.70
2018-02-24T17:40:55.479Z,30.30
2018-02-24T17:43:23.614Z,29.70
2018-02-24T17:48:19.331Z,28.30
2018-02-24T17:50:46.920Z,29.10
2018-02-24T17:53:15.129Z,30.40
2018-02-24T17:55:42.525Z,31.90
2018-02-24T18:00:38.276Z,28.80
2018-02-24T18:03:05.753Z,29.40
2018-02-24T18:08:02.396Z,28.60
2018-02-24T18:10:30.992Z,28.70
2018-02-24T18:12:59.143Z,28.60
2018-02-24T18:17:55.552Z,28.50
2018-02-24T18:22:48.975Z,28.10
2018-02-24T18:25:17.158Z,27.90
2018-02-24T18:32:41.972Z,29.20
2018-02-24T18:35:09.348Z,28.90
2018-02-24T18:37:36.966Z,28.60
2018-02-24T18:40:05.069Z,27.20
2018-02-24T18:42:32.897Z,28.70
2018-02-24T18:45:00.406Z,28.00
2018-02-24T18:49:56.875Z,27.70
2018-02-24T18:54:52.502Z,28.90
2018-02-24T18:59:49.440Z,25.70
2018-02-24T19:02:16.800Z,25.70
2018-02-24T19:04:44.944Z,26.40
2018-02-24T19:07:12.493Z,29.30
2018-02-24T19:12:08.897Z,27.00
2018-02-24T19:14:37.025Z,29.80
2018-02-24T19:17:04.481Z,28.40
2018-02-24T19:19:32.631Z,27.20
2018-02-24T19:22:00.745Z,28.90
2018-02-24T19:24:28.935Z,27.40
2018-02-24T19:26:56.493Z,26.00
2018-02-24T19:29:23.888Z,25.00
2018-02-24T19:31:52.159Z,26.20
2018-02-24T19:34:19.520Z,26.50
2018-02-24T19:36:47.605Z,28.70
2018-02-24T19:39:15.052Z,28.30
2018-02-24T19:46:39.361Z,26.70
2018-02-24T19:49:06.805Z,26.10
2018-02-24T19:51:34.240Z,28.30
2018-02-24T19:54:02.312Z,27.40
2018-02-24T19:58:58.173Z,25.80
2018-02-24T20:03:54.765Z,26.90
2018-02-24T20:08:50.458Z,31.10
2018-02-24T20:13:46.256Z,25.90
2018-02-24T20:16:13.638Z,26.10
2018-02-24T20:21:09.381Z,28.50
2018-02-24T20:26:06.136Z,27.60
2018-02-24T20:28:33.531Z,26.60
2018-02-24T20:31:01.648Z,28.30
2018-02-24T20:35:57.335Z,26.30
2018-02-24T20:38:25.406Z,28.80
2018-02-24T20:40:52.807Z,27.20
2018-02-24T20:45:48.544Z,25.70
2018-02-24T20:50:44.267Z,27.60
2018-02-24T20:55:39.968Z,28.10
2018-02-24T20:58:07.451Z,26.30
2018-02-24T21:03:03.984Z,27.60
2018-02-24T21:05:31.505Z,28.10
2018-02-24T21:07:58.884Z,28.30
2018-02-24T21:10:26.278Z,27.30
2018-02-24T21:12:54.388Z,31.50
2018-02-24T21:15:21.810Z,29.30
2018-02-24T21:20:18.266Z,28.50
2018-02-24T21:22:46.504Z,29.70
2018-02-24T21:25:13.865Z,30.10
2018-02-24T21:27:41.225Z,27.50
2018-02-24T21:30:08.619Z,29.10
2018-02-24T21:32:36.018Z,28.90
2018-02-24T21:37:32.496Z,27.40
2018-02-24T21:40:00.302Z,29.70
2018-02-24T21:42:27.687Z,32.30
2018-02-24T21:47:24.116Z,28.80
2018-02-24T21:49:51.472Z,28.00
2018-02-24T21:52:18.929Z,28.50
2018-02-24T21:57:15.519Z,29.10
2018-02-24T22:02:12.056Z,28.20
2018-02-24T22:04:39.428Z,27.20
2018-02-24T22:07:06.784Z,26.70
2018-02-24T22:09:34.148Z,27.90
2018-02-24T22:12:01.560Z,32.60
2018-02-24T22:14:28.922Z,31.20
2018-02-24T22:19:25.377Z,28.90
2018-02-24T22:21:53.553Z,30.00
2018-02-24T22:24:20.936Z,29.10
2018-02-24T22:26:48.269Z,31.80
2018-02-24T22:29:16.474Z,30.50
2018-02-24T22:31:43.817Z,32.00
2018-02-24T22:34:11.183Z,28.80
2018-02-24T22:39:22.267Z,28.50
2018-02-24T22:44:23.988Z,30.50
2018-02-24T22:46:51.372Z,30.90
2018-02-24T22:49:18.798Z,29.70
2018-02-24T22:51:46.936Z,29.40
2018-02-24T22:59:26.051Z,29.80
2018-02-24T23:01:59.660Z,31.70
2018-02-24T23:07:03.501Z,35.00
2018-02-24T23:09:32.141Z,32.40
2018-02-24T23:11:59.588Z,31.60
2018-02-24T23:14:27.182Z,33.40
2018-02-24T23:16:54.565Z,29.60
2018-02-24T23:19:22.082Z,32.50
2018-02-24T23:21:49.434Z,30.00
2018-02-24T23:24:16.940Z,30.00
2018-02-24T23:26:44.331Z,31.50
2018-02-24T23:29:11.840Z,30.20
2018-02-24T23:31:39.231Z,31.80
2018-02-24T23:34:07.895Z,30.70
2018-02-24T23:36:35.236Z,32.50
2018-02-24T23:39:02.601Z,30.40
2018-02-24T23:41:30.922Z,29.10
2018-02-24T23:43:58.395Z,32.40
2018-02-24T23:46:26.516Z,29.60
2018-02-24T23:48:54.763Z,30.80
2018-02-24T23:51:22.193Z,27.40
2018-02-24T23:53:49.567Z,29.40
2018-02-24T23:56:17.497Z,31.30
2018-02-24T23:58:46.987Z,27.80
